OSOK1: Oswego hwy 160

                                SHEF ID:       OSOK1     Oswego hwy 160
STATION TYPE:

PRECIP STAGE RIV-FLOW VOLTAGE BAT-LOAD
in ft cfs volt volt
Ccp-Rev Ccp-Rev Ccp-Rev Ccp-Rev Ccp-Rev
(America/Chicago)
02/21 00:00 0.00 13.90 4804 12.73 12.46
02/21 01:00 0.00 13.88 4779 12.71 12.44
02/21 02:00 0.00 13.88 4779 12.69 12.40
02/21 03:00 0.00 13.87 4766 12.66 12.38
02/21 04:00 0.00 13.87 4766 12.63 12.35
02/21 05:00 0.00 13.87 4766 12.61 12.32
02/21 06:00 0.00 13.87 4766 12.59 12.30
02/21 07:00 0.00 13.87 4766 12.58 12.29
02/21 08:00 0.00 13.86 4753 12.78 12.42
02/21 09:00 0.00 13.85 4741 14.33 13.54
02/21 10:00 0.00 13.86 4753 14.62 13.61
02/21 11:00 0.00 13.85 4741 14.59 13.48
02/21 12:00 0.00 13.86 4753 14.10 13.34
02/21 13:00 0.00 13.86 4753 14.00 13.26
02/21 14:00 0.00 13.84 4728 13.88 13.25
02/21 15:00 0.00 13.86 4753 13.78 13.19
02/21 16:00 0.00 13.84 4728 13.85 13.13
02/21 17:00 0.00 13.84 4728 14.04 13.15
02/21 18:00 0.00 13.83 4716 13.28 13.07
02/21 19:00 0.00 13.84 4728 13.04 12.81
02/21 20:00 0.00 13.83 4716 12.89 12.65
02/21 21:00 0.00 13.83 4716 12.82 12.56
02/21 22:00 0.00 13.83 4716 12.78 12.51
02/21 23:00 0.00 13.83 4716 12.75 12.47
Data processed at Sun 22Feb2026 05:50 GMT

NOTICE: If you are parsing this page

Please convert to using our Data API. Starting early 2026 we will be migrating to: https://water.usace.army.mil with modern pages rendered in JavaScript. When this migration completes you will no longer be able to scrape this page! CWMSDataAPI (CDA)

Timeseries IDs (TSIDs)

TSIDs used from left to right in the data table
OSWN.Precip-Inc.Total.1Hour.1Hour.Ccp-Rev
OSWN.Stage.Inst.1Hour.0.Ccp-Rev
OSWN.Flow.Inst.1Hour.0.Ccp-Rev
OSWN.Volt-Battery.Inst.1Hour.0.Ccp-Rev
OSWN.Volt-Battery Load.Inst.1Hour.0.Ccp-Rev

                            

All information presented herein is the property of the government of the United States of America and may be revised or deleted at any time without prior notice. Dissemination of this information without the expressed written consent of the Public Affairs Office, Tulsa District U.S. Army Corps of Engineers is strictly prohibited. These data are gathered electronically and, as presented, have NOT undergone any form of quality control. These data are NOT guaranteed to be valid or correct.